sensor_id;sensor_type;location;lat;lon;timestamp;temperature;humidity
53880;DHT22;39791;53.184;5.486;2023-06-14T00:00:41;16.60;99.90
53880;DHT22;39791;53.184;5.486;2023-06-14T00:03:08;16.60;99.90
53880;DHT22;39791;53.184;5.486;2023-06-14T00:05:36;16.50;99.90
53880;DHT22;39791;53.184;5.486;2023-06-14T00:08:06;16.50;99.90
53880;DHT22;39791;53.184;5.486;2023-06-14T00:10:34;16.50;99.90
53880;DHT22;39791;53.184;5.486;2023-06-14T00:13:01;16.50;99.90
53880;DHT22;39791;53.184;5.486;2023-06-14T00:15:27;16.40;99.90
53880;DHT22;39791;53.184;5.486;2023-06-14T00:17:53;16.40;99.90
53880;DHT22;39791;53.184;5.486;2023-06-14T00:20:20;16.40;99.90
53880;DHT22;39791;53.184;5.486;2023-06-14T00:22:46;16.40;99.90
53880;DHT22;39791;53.184;5.486;2023-06-14T00:25:11;16.40;99.90
53880;DHT22;39791;53.184;5.486;2023-06-14T00:27:37;16.30;99.90
53880;DHT22;39791;53.184;5.486;2023-06-14T00:30:03;16.30;99.90
53880;DHT22;39791;53.184;5.486;2023-06-14T00:32:29;16.30;99.90
53880;DHT22;39791;53.184;5.486;2023-06-14T00:34:55;16.20;99.90
53880;DHT22;39791;53.184;5.486;2023-06-14T00:37:20;16.20;99.90
53880;DHT22;39791;53.184;5.486;2023-06-14T00:39:46;16.20;99.90
53880;DHT22;39791;53.184;5.486;2023-06-14T00:42:23;16.10;99.90
53880;DHT22;39791;53.184;5.486;2023-06-14T00:44:49;16.10;99.90
53880;DHT22;39791;53.184;5.486;2023-06-14T00:47:14;16.10;99.90
53880;DHT22;39791;53.184;5.486;2023-06-14T00:49:40;16.10;99.90
53880;DHT22;39791;53.184;5.486;2023-06-14T00:52:06;16.00;99.90
53880;DHT22;39791;53.184;5.486;2023-06-14T00:54:32;16.00;99.90
53880;DHT22;39791;53.184;5.486;2023-06-14T00:56:57;16.00;99.90
53880;DHT22;39791;53.184;5.486;2023-06-14T00:59:23;16.00;99.90
53880;DHT22;39791;53.184;5.486;2023-06-14T01:01:49;15.90;99.90
53880;DHT22;39791;53.184;5.486;2023-06-14T01:04:15;15.90;99.90
53880;DHT22;39791;53.184;5.486;2023-06-14T01:12:35;15.80;99.90
53880;DHT22;39791;53.184;5.486;2023-06-14T01:15:02;15.80;99.90
53880;DHT22;39791;53.184;5.486;2023-06-14T01:17:29;15.80;99.90
53880;DHT22;39791;53.184;5.486;2023-06-14T01:20:03;15.70;99.90
53880;DHT22;39791;53.184;5.486;2023-06-14T01:22:33;15.70;99.90
53880;DHT22;39791;53.184;5.486;2023-06-14T01:24:59;15.70;99.90
53880;DHT22;39791;53.184;5.486;2023-06-14T01:27:26;15.70;99.90
53880;DHT22;39791;53.184;5.486;2023-06-14T01:29:55;15.70;99.90
53880;DHT22;39791;53.184;5.486;2023-06-14T01:32:24;15.60;99.90
53880;DHT22;39791;53.184;5.486;2023-06-14T01:34:51;16.00;99.90
53880;DHT22;39791;53.184;5.486;2023-06-14T01:37:18;15.60;99.90
53880;DHT22;39791;53.184;5.486;2023-06-14T01:39:44;15.60;99.90
53880;DHT22;39791;53.184;5.486;2023-06-14T01:42:11;15.60;99.90
53880;DHT22;39791;53.184;5.486;2023-06-14T01:44:38;15.60;99.90
53880;DHT22;39791;53.184;5.486;2023-06-14T01:47:05;15.50;99.90
53880;DHT22;39791;53.184;5.486;2023-06-14T01:49:36;15.50;1.00
53880;DHT22;39791;53.184;5.486;2023-06-14T01:52:03;15.40;1.00
53880;DHT22;39791;53.184;5.486;2023-06-14T01:54:29;15.40;1.00
53880;DHT22;39791;53.184;5.486;2023-06-14T01:56:56;15.40;1.00
53880;DHT22;39791;53.184;5.486;2023-06-14T01:59:22;15.40;1.00
53880;DHT22;39791;53.184;5.486;2023-06-14T02:01:47;15.40;1.00
53880;DHT22;39791;53.184;5.486;2023-06-14T02:04:13;15.40;1.00
53880;DHT22;39791;53.184;5.486;2023-06-14T02:06:38;15.30;1.00
53880;DHT22;39791;53.184;5.486;2023-06-14T02:09:04;15.30;1.00
53880;DHT22;39791;53.184;5.486;2023-06-14T02:11:30;15.60;1.00
53880;DHT22;39791;53.184;5.486;2023-06-14T02:13:55;15.30;1.00
53880;DHT22;39791;53.184;5.486;2023-06-14T02:16:21;15.20;1.00
53880;DHT22;39791;53.184;5.486;2023-06-14T02:18:47;15.20;1.00
53880;DHT22;39791;53.184;5.486;2023-06-14T02:21:14;15.20;1.00
53880;DHT22;39791;53.184;5.486;2023-06-14T02:23:39;15.30;1.00
53880;DHT22;39791;53.184;5.486;2023-06-14T02:26:05;15.10;1.00
53880;DHT22;39791;53.184;5.486;2023-06-14T02:28:31;15.10;1.00
53880;DHT22;39791;53.184;5.486;2023-06-14T02:30:56;15.40;1.00
53880;DHT22;39791;53.184;5.486;2023-06-14T02:33:22;15.10;1.00
53880;DHT22;39791;53.184;5.486;2023-06-14T02:35:47;15.10;1.00
53880;DHT22;39791;53.184;5.486;2023-06-14T02:38:13;15.10;1.00
53880;DHT22;39791;53.184;5.486;2023-06-14T02:40:38;15.10;1.00
53880;DHT22;39791;53.184;5.486;2023-06-14T02:43:06;15.00;1.00
53880;DHT22;39791;53.184;5.486;2023-06-14T02:45:31;15.00;1.00
53880;DHT22;39791;53.184;5.486;2023-06-14T02:47:57;15.00;1.00
53880;DHT22;39791;53.184;5.486;2023-06-14T02:50:22;14.90;1.00
53880;DHT22;39791;53.184;5.486;2023-06-14T02:52:49;14.90;1.00
53880;DHT22;39791;53.184;5.486;2023-06-14T02:55:14;14.90;1.00
53880;DHT22;39791;53.184;5.486;2023-06-14T02:57:40;14.90;1.00
53880;DHT22;39791;53.184;5.486;2023-06-14T03:00:06;14.90;1.00
53880;DHT22;39791;53.184;5.486;2023-06-14T03:02:35;14.80;1.00
53880;DHT22;39791;53.184;5.486;2023-06-14T03:05:00;14.80;1.00
53880;DHT22;39791;53.184;5.486;2023-06-14T03:07:28;14.80;1.00
53880;DHT22;39791;53.184;5.486;2023-06-14T03:09:55;14.80;1.00
53880;DHT22;39791;53.184;5.486;2023-06-14T03:12:20;14.70;1.00
53880;DHT22;39791;53.184;5.486;2023-06-14T03:14:46;14.70;1.00
53880;DHT22;39791;53.184;5.486;2023-06-14T03:17:12;14.70;1.00
53880;DHT22;39791;53.184;5.486;2023-06-14T03:19:38;14.90;1.00
53880;DHT22;39791;53.184;5.486;2023-06-14T03:22:03;14.70;1.00
53880;DHT22;39791;53.184;5.486;2023-06-14T03:24:29;14.70;4.00
53880;DHT22;39791;53.184;5.486;2023-06-14T03:26:57;14.70;11.90
53880;DHT22;39791;53.184;5.486;2023-06-14T03:29:22;14.70;17.90
53880;DHT22;39791;53.184;5.486;2023-06-14T03:31:59;14.70;25.20
53880;DHT22;39791;53.184;5.486;2023-06-14T03:34:25;14.70;39.00
53880;DHT22;39791;53.184;5.486;2023-06-14T03:36:51;14.70;40.40
53880;DHT22;39791;53.184;5.486;2023-06-14T03:39:17;14.70;44.90
53880;DHT22;39791;53.184;5.486;2023-06-14T03:41:42;14.70;53.90
53880;DHT22;39791;53.184;5.486;2023-06-14T03:44:08;14.70;59.80
53880;DHT22;39791;53.184;5.486;2023-06-14T03:46:33;14.70;71.00
53880;DHT22;39791;53.184;5.486;2023-06-14T03:48:59;14.80;80.00
53880;DHT22;39791;53.184;5.486;2023-06-14T03:51:25;14.70;90.50
53880;DHT22;39791;53.184;5.486;2023-06-14T03:53:51;14.80;94.40
53880;DHT22;39791;53.184;5.486;2023-06-14T03:56:17;14.70;97.50
53880;DHT22;39791;53.184;5.486;2023-06-14T03:58:42;14.80;99.90
53880;DHT22;39791;53.184;5.486;2023-06-14T04:01:08;14.70;99.90
53880;DHT22;39791;53.184;5.486;2023-06-14T04:03:33;14.80;99.90
53880;DHT22;39791;53.184;5.486;2023-06-14T04:06:00;14.70;99.90
53880;DHT22;39791;53.184;5.486;2023-06-14T04:08:26;14.80;99.90
53880;DHT22;39791;53.184;5.486;2023-06-14T04:10:51;14.80;99.90
53880;DHT22;39791;53.184;5.486;2023-06-14T04:13:17;14.80;99.90
53880;DHT22;39791;53.184;5.486;2023-06-14T04:15:43;14.90;99.90
53880;DHT22;39791;53.184;5.486;2023-06-14T04:18:11;14.80;99.90
53880;DHT22;39791;53.184;5.486;2023-06-14T04:20:36;15.20;99.90
53880;DHT22;39791;53.184;5.486;2023-06-14T04:23:15;14.90;99.90
53880;DHT22;39791;53.184;5.486;2023-06-14T04:25:44;14.90;99.90
53880;DHT22;39791;53.184;5.486;2023-06-14T04:28:11;14.90;99.90
53880;DHT22;39791;53.184;5.486;2023-06-14T04:30:37;15.00;99.90
53880;DHT22;39791;53.184;5.486;2023-06-14T04:33:04;15.00;99.90
53880;DHT22;39791;53.184;5.486;2023-06-14T04:35:31;15.00;99.90
53880;DHT22;39791;53.184;5.486;2023-06-14T04:37:58;15.00;99.90
53880;DHT22;39791;53.184;5.486;2023-06-14T04:40:24;15.10;99.90
53880;DHT22;39791;53.184;5.486;2023-06-14T04:42:50;15.10;99.90
53880;DHT22;39791;53.184;5.486;2023-06-14T04:45:16;15.40;99.90
53880;DHT22;39791;53.184;5.486;2023-06-14T04:47:42;15.20;99.90
53880;DHT22;39791;53.184;5.486;2023-06-14T04:50:10;15.10;99.90
53880;DHT22;39791;53.184;5.486;2023-06-14T04:52:38;15.40;99.90
53880;DHT22;39791;53.184;5.486;2023-06-14T04:55:04;15.30;99.90
53880;DHT22;39791;53.184;5.486;2023-06-14T04:57:31;15.30;99.90
53880;DHT22;39791;53.184;5.486;2023-06-14T04:59:57;15.40;99.90
53880;DHT22;39791;53.184;5.486;2023-06-14T05:02:23;15.40;99.90
53880;DHT22;39791;53.184;5.486;2023-06-14T05:04:50;15.50;99.90
53880;DHT22;39791;53.184;5.486;2023-06-14T05:07:15;15.60;99.90
53880;DHT22;39791;53.184;5.486;2023-06-14T05:09:41;15.60;99.90
53880;DHT22;39791;53.184;5.486;2023-06-14T05:12:07;15.70;99.90
53880;DHT22;39791;53.184;5.486;2023-06-14T05:14:36;15.70;99.90
53880;DHT22;39791;53.184;5.486;2023-06-14T05:17:02;15.80;99.90
53880;DHT22;39791;53.184;5.486;2023-06-14T05:19:28;15.80;99.90
53880;DHT22;39791;53.184;5.486;2023-06-14T05:21:54;15.90;95.80
53880;DHT22;39791;53.184;5.486;2023-06-14T05:24:19;15.90;93.40
53880;DHT22;39791;53.184;5.486;2023-06-14T05:26:46;15.90;88.70
53880;DHT22;39791;53.184;5.486;2023-06-14T05:29:12;16.00;83.20
53880;DHT22;39791;53.184;5.486;2023-06-14T05:31:37;16.10;81.20
53880;DHT22;39791;53.184;5.486;2023-06-14T05:34:03;16.20;76.10
53880;DHT22;39791;53.184;5.486;2023-06-14T05:36:29;16.20;71.40
53880;DHT22;39791;53.184;5.486;2023-06-14T05:38:55;16.30;64.40
53880;DHT22;39791;53.184;5.486;2023-06-14T05:41:26;16.30;58.50
53880;DHT22;39791;53.184;5.486;2023-06-14T05:43:53;16.40;50.10
53880;DHT22;39791;53.184;5.486;2023-06-14T05:46:19;16.50;48.80
53880;DHT22;39791;53.184;5.486;2023-06-14T05:48:48;16.50;38.20
53880;DHT22;39791;53.184;5.486;2023-06-14T05:51:14;16.60;31.00
53880;DHT22;39791;53.184;5.486;2023-06-14T05:53:40;16.70;26.90
53880;DHT22;39791;53.184;5.486;2023-06-14T05:56:05;16.80;19.70
53880;DHT22;39791;53.184;5.486;2023-06-14T05:58:31;16.90;10.30
53880;DHT22;39791;53.184;5.486;2023-06-14T06:00:56;17.00;3.80
53880;DHT22;39791;53.184;5.486;2023-06-14T06:03:23;17.20;1.00
53880;DHT22;39791;53.184;5.486;2023-06-14T06:05:48;17.20;1.00
53880;DHT22;39791;53.184;5.486;2023-06-14T06:08:14;17.30;1.00
53880;DHT22;39791;53.184;5.486;2023-06-14T06:10:40;16.70;1.00
53880;DHT22;39791;53.184;5.486;2023-06-14T06:13:05;17.50;1.00
53880;DHT22;39791;53.184;5.486;2023-06-14T06:15:31;17.60;1.00
53880;DHT22;39791;53.184;5.486;2023-06-14T06:17:56;17.70;1.00
53880;DHT22;39791;53.184;5.486;2023-06-14T06:20:23;17.70;1.00
53880;DHT22;39791;53.184;5.486;2023-06-14T06:22:53;17.70;1.00
53880;DHT22;39791;53.184;5.486;2023-06-14T06:25:19;17.80;1.00
53880;DHT22;39791;53.184;5.486;2023-06-14T06:27:45;17.90;1.00
53880;DHT22;39791;53.184;5.486;2023-06-14T06:30:11;18.00;1.00
53880;DHT22;39791;53.184;5.486;2023-06-14T06:32:36;18.10;1.00
53880;DHT22;39791;53.184;5.486;2023-06-14T06:35:02;18.20;1.00
53880;DHT22;39791;53.184;5.486;2023-06-14T06:37:31;18.40;1.00
53880;DHT22;39791;53.184;5.486;2023-06-14T06:39:57;18.50;1.00
53880;DHT22;39791;53.184;5.486;2023-06-14T06:42:22;18.60;1.00
53880;DHT22;39791;53.184;5.486;2023-06-14T06:44:48;18.70;1.00
53880;DHT22;39791;53.184;5.486;2023-06-14T06:47:13;18.90;1.00
53880;DHT22;39791;53.184;5.486;2023-06-14T06:49:39;19.10;1.00
53880;DHT22;39791;53.184;5.486;2023-06-14T06:52:06;19.20;1.00
53880;DHT22;39791;53.184;5.486;2023-06-14T06:54:32;19.20;1.00
53880;DHT22;39791;53.184;5.486;2023-06-14T06:56:59;19.40;1.00
53880;DHT22;39791;53.184;5.486;2023-06-14T06:59:24;19.50;1.00
53880;DHT22;39791;53.184;5.486;2023-06-14T07:01:50;19.70;1.00
53880;DHT22;39791;53.184;5.486;2023-06-14T07:04:16;19.90;1.00
53880;DHT22;39791;53.184;5.486;2023-06-14T07:06:42;20.20;1.00
53880;DHT22;39791;53.184;5.486;2023-06-14T07:09:08;20.30;1.00
53880;DHT22;39791;53.184;5.486;2023-06-14T07:11:41;20.40;1.00
53880;DHT22;39791;53.184;5.486;2023-06-14T07:14:07;20.60;1.00
53880;DHT22;39791;53.184;5.486;2023-06-14T07:16:32;20.80;99.90
53880;DHT22;39791;53.184;5.486;2023-06-14T07:18:58;20.90;99.90
53880;DHT22;39791;53.184;5.486;2023-06-14T07:21:24;21.00;99.90
53880;DHT22;39791;53.184;5.486;2023-06-14T07:23:52;21.10;99.90
53880;DHT22;39791;53.184;5.486;2023-06-14T07:26:18;21.20;99.90
53880;DHT22;39791;53.184;5.486;2023-06-14T07:28:43;21.30;99.90
53880;DHT22;39791;53.184;5.486;2023-06-14T07:31:12;21.30;99.90
53880;DHT22;39791;53.184;5.486;2023-06-14T07:33:38;21.30;99.90
53880;DHT22;39791;53.184;5.486;2023-06-14T07:36:03;21.50;99.90
53880;DHT22;39791;53.184;5.486;2023-06-14T07:38:29;21.70;99.90
53880;DHT22;39791;53.184;5.486;2023-06-14T07:40:55;22.00;99.90
53880;DHT22;39791;53.184;5.486;2023-06-14T07:43:20;22.00;99.90
53880;DHT22;39791;53.184;5.486;2023-06-14T07:45:46;22.00;99.90
53880;DHT22;39791;53.184;5.486;2023-06-14T07:48:11;22.20;99.90
53880;DHT22;39791;53.184;5.486;2023-06-14T07:50:37;22.30;99.90
53880;DHT22;39791;53.184;5.486;2023-06-14T07:53:03;22.50;99.90
53880;DHT22;39791;53.184;5.486;2023-06-14T07:55:28;22.50;99.90
53880;DHT22;39791;53.184;5.486;2023-06-14T07:57:54;22.60;99.90
53880;DHT22;39791;53.184;5.486;2023-06-14T08:00:20;22.50;99.90
53880;DHT22;39791;53.184;5.486;2023-06-14T08:02:46;22.80;99.90
53880;DHT22;39791;53.184;5.486;2023-06-14T08:05:12;23.00;99.90
53880;DHT22;39791;53.184;5.486;2023-06-14T08:07:38;23.10;99.90
53880;DHT22;39791;53.184;5.486;2023-06-14T08:10:05;23.10;99.90
53880;DHT22;39791;53.184;5.486;2023-06-14T08:12:32;23.30;99.90
53880;DHT22;39791;53.184;5.486;2023-06-14T08:14:58;23.40;99.90
53880;DHT22;39791;53.184;5.486;2023-06-14T08:17:24;23.70;99.90
53880;DHT22;39791;53.184;5.486;2023-06-14T08:19:50;23.50;99.90
53880;DHT22;39791;53.184;5.486;2023-06-14T08:22:16;23.60;99.90
53880;DHT22;39791;53.184;5.486;2023-06-14T08:24:42;23.90;99.90
53880;DHT22;39791;53.184;5.486;2023-06-14T08:27:07;23.60;99.90
53880;DHT22;39791;53.184;5.486;2023-06-14T08:29:34;23.50;99.90
53880;DHT22;39791;53.184;5.486;2023-06-14T08:31:59;23.70;99.90
53880;DHT22;39791;53.184;5.486;2023-06-14T08:34:28;23.90;99.90
53880;DHT22;39791;53.184;5.486;2023-06-14T08:36:54;23.80;99.90
53880;DHT22;39791;53.184;5.486;2023-06-14T08:39:20;23.90;99.90
53880;DHT22;39791;53.184;5.486;2023-06-14T08:41:46;24.00;99.90
53880;DHT22;39791;53.184;5.486;2023-06-14T08:44:16;24.00;99.90
53880;DHT22;39791;53.184;5.486;2023-06-14T08:46:42;24.00;99.90
53880;DHT22;39791;53.184;5.486;2023-06-14T08:49:08;24.10;99.90
53880;DHT22;39791;53.184;5.486;2023-06-14T08:51:36;24.00;99.90
53880;DHT22;39791;53.184;5.486;2023-06-14T08:54:02;23.90;99.90
53880;DHT22;39791;53.184;5.486;2023-06-14T08:56:30;24.10;99.90
53880;DHT22;39791;53.184;5.486;2023-06-14T08:58:57;24.20;99.90
53880;DHT22;39791;53.184;5.486;2023-06-14T09:01:23;24.30;99.90
53880;DHT22;39791;53.184;5.486;2023-06-14T09:03:50;24.90;99.90
53880;DHT22;39791;53.184;5.486;2023-06-14T09:06:16;24.50;99.90
53880;DHT22;39791;53.184;5.486;2023-06-14T09:08:45;24.50;99.90
53880;DHT22;39791;53.184;5.486;2023-06-14T09:11:12;24.70;99.90
53880;DHT22;39791;53.184;5.486;2023-06-14T09:13:39;24.60;99.90
53880;DHT22;39791;53.184;5.486;2023-06-14T09:16:05;24.60;99.90
53880;DHT22;39791;53.184;5.486;2023-06-14T09:18:38;24.60;99.90
53880;DHT22;39791;53.184;5.486;2023-06-14T09:21:08;24.60;99.90
53880;DHT22;39791;53.184;5.486;2023-06-14T09:23:43;24.70;99.90
53880;DHT22;39791;53.184;5.486;2023-06-14T09:28:49;24.80;99.90
53880;DHT22;39791;53.184;5.486;2023-06-14T09:31:19;24.80;99.90
53880;DHT22;39791;53.184;5.486;2023-06-14T09:33:47;25.00;99.90
53880;DHT22;39791;53.184;5.486;2023-06-14T09:36:18;24.80;99.90
53880;DHT22;39791;53.184;5.486;2023-06-14T09:38:56;24.70;99.90
53880;DHT22;39791;53.184;5.486;2023-06-14T09:41:36;24.70;99.90
53880;DHT22;39791;53.184;5.486;2023-06-14T09:44:04;24.60;99.90
53880;DHT22;39791;53.184;5.486;2023-06-14T09:46:31;24.70;99.90
53880;DHT22;39791;53.184;5.486;2023-06-14T09:48:57;24.70;99.90
53880;DHT22;39791;53.184;5.486;2023-06-14T09:51:24;24.70;99.90
53880;DHT22;39791;53.184;5.486;2023-06-14T09:53:50;24.80;99.90
53880;DHT22;39791;53.184;5.486;2023-06-14T09:56:26;24.90;99.90
53880;DHT22;39791;53.184;5.486;2023-06-14T09:58:56;25.00;99.90
53880;DHT22;39791;53.184;5.486;2023-06-14T10:01:24;24.90;99.90
53880;DHT22;39791;53.184;5.486;2023-06-14T10:03:55;25.00;99.90
53880;DHT22;39791;53.184;5.486;2023-06-14T10:06:23;25.00;99.90
53880;DHT22;39791;53.184;5.486;2023-06-14T10:08:55;25.00;99.90
53880;DHT22;39791;53.184;5.486;2023-06-14T10:11:21;25.00;99.90
53880;DHT22;39791;53.184;5.486;2023-06-14T10:13:47;24.80;99.90
53880;DHT22;39791;53.184;5.486;2023-06-14T10:16:39;25.00;99.90
53880;DHT22;39791;53.184;5.486;2023-06-14T10:19:19;24.90;99.90
53880;DHT22;39791;53.184;5.486;2023-06-14T10:24:16;24.90;99.90
53880;DHT22;39791;53.184;5.486;2023-06-14T10:26:54;25.20;99.90
53880;DHT22;39791;53.184;5.486;2023-06-14T10:29:22;25.30;99.90
53880;DHT22;39791;53.184;5.486;2023-06-14T10:31:49;25.40;99.90
53880;DHT22;39791;53.184;5.486;2023-06-14T10:34:38;25.40;99.90
53880;DHT22;39791;53.184;5.486;2023-06-14T10:37:12;25.50;99.90
53880;DHT22;39791;53.184;5.486;2023-06-14T10:39:43;25.60;99.90
53880;DHT22;39791;53.184;5.486;2023-06-14T10:42:13;25.80;99.90
53880;DHT22;39791;53.184;5.486;2023-06-14T10:47:20;25.40;99.90
53880;DHT22;39791;53.184;5.486;2023-06-14T10:49:51;25.30;99.90
53880;DHT22;39791;53.184;5.486;2023-06-14T10:52:22;25.10;99.90
53880;DHT22;39791;53.184;5.486;2023-06-14T10:55:03;25.20;99.90
53880;DHT22;39791;53.184;5.486;2023-06-14T10:57:30;25.20;99.90
53880;DHT22;39791;53.184;5.486;2023-06-14T11:00:00;25.20;99.90
53880;DHT22;39791;53.184;5.486;2023-06-14T11:05:29;25.40;99.90
53880;DHT22;39791;53.184;5.486;2023-06-14T11:08:15;25.30;99.90
53880;DHT22;39791;53.184;5.486;2023-06-14T11:10:44;25.30;99.90
53880;DHT22;39791;53.184;5.486;2023-06-14T11:13:13;25.30;99.90
53880;DHT22;39791;53.184;5.486;2023-06-14T11:15:47;25.30;99.90
53880;DHT22;39791;53.184;5.486;2023-06-14T11:18:14;25.30;99.90
53880;DHT22;39791;53.184;5.486;2023-06-14T11:20:40;25.40;99.90
53880;DHT22;39791;53.184;5.486;2023-06-14T11:23:06;25.40;99.90
53880;DHT22;39791;53.184;5.486;2023-06-14T11:25:32;25.40;99.90
53880;DHT22;39791;53.184;5.486;2023-06-14T11:27:58;25.50;99.90
53880;DHT22;39791;53.184;5.486;2023-06-14T11:30:24;25.30;99.90
53880;DHT22;39791;53.184;5.486;2023-06-14T11:32:54;25.20;99.90
53880;DHT22;39791;53.184;5.486;2023-06-14T11:35:24;25.20;99.90
53880;DHT22;39791;53.184;5.486;2023-06-14T11:37:54;25.20;99.90
53880;DHT22;39791;53.184;5.486;2023-06-14T11:40:23;25.20;99.90
53880;DHT22;39791;53.184;5.486;2023-06-14T11:42:49;25.20;99.90
53880;DHT22;39791;53.184;5.486;2023-06-14T11:45:15;25.40;99.90
53880;DHT22;39791;53.184;5.486;2023-06-14T11:47:41;25.00;99.90
53880;DHT22;39791;53.184;5.486;2023-06-14T11:50:08;25.00;99.90
53880;DHT22;39791;53.184;5.486;2023-06-14T11:52:35;25.00;99.90
53880;DHT22;39791;53.184;5.486;2023-06-14T11:55:02;25.00;99.90
53880;DHT22;39791;53.184;5.486;2023-06-14T11:57:31;25.00;99.90
53880;DHT22;39791;53.184;5.486;2023-06-14T11:59:59;25.10;99.90
53880;DHT22;39791;53.184;5.486;2023-06-14T12:02:24;25.00;99.90
53880;DHT22;39791;53.184;5.486;2023-06-14T12:04:50;24.80;99.90
53880;DHT22;39791;53.184;5.486;2023-06-14T12:07:17;24.70;99.90
53880;DHT22;39791;53.184;5.486;2023-06-14T12:12:26;24.70;99.90
53880;DHT22;39791;53.184;5.486;2023-06-14T12:14:52;24.70;99.90
53880;DHT22;39791;53.184;5.486;2023-06-14T12:17:19;24.70;99.90
53880;DHT22;39791;53.184;5.486;2023-06-14T12:19:45;24.70;99.90
53880;DHT22;39791;53.184;5.486;2023-06-14T12:22:12;24.80;99.90
53880;DHT22;39791;53.184;5.486;2023-06-14T12:24:38;24.80;99.90
53880;DHT22;39791;53.184;5.486;2023-06-14T12:27:05;24.90;99.90
53880;DHT22;39791;53.184;5.486;2023-06-14T12:29:31;24.90;99.90
53880;DHT22;39791;53.184;5.486;2023-06-14T12:31:57;25.00;99.90
53880;DHT22;39791;53.184;5.486;2023-06-14T12:34:23;25.00;99.90
53880;DHT22;39791;53.184;5.486;2023-06-14T12:36:53;24.80;99.90
53880;DHT22;39791;53.184;5.486;2023-06-14T12:39:19;24.90;99.90
53880;DHT22;39791;53.184;5.486;2023-06-14T12:41:46;24.80;99.90
53880;DHT22;39791;53.184;5.486;2023-06-14T12:44:12;24.80;99.90
53880;DHT22;39791;53.184;5.486;2023-06-14T12:46:39;24.90;99.90
53880;DHT22;39791;53.184;5.486;2023-06-14T12:49:07;24.90;99.90
53880;DHT22;39791;53.184;5.486;2023-06-14T12:51:33;24.80;99.90
53880;DHT22;39791;53.184;5.486;2023-06-14T12:53:58;25.20;99.90
53880;DHT22;39791;53.184;5.486;2023-06-14T12:56:24;25.00;99.90
53880;DHT22;39791;53.184;5.486;2023-06-14T12:58:50;25.00;99.90
53880;DHT22;39791;53.184;5.486;2023-06-14T13:01:16;24.70;99.90
53880;DHT22;39791;53.184;5.486;2023-06-14T13:03:41;24.70;99.90
53880;DHT22;39791;53.184;5.486;2023-06-14T13:06:07;24.70;99.90
53880;DHT22;39791;53.184;5.486;2023-06-14T13:08:32;24.80;99.90
53880;DHT22;39791;53.184;5.486;2023-06-14T13:10:58;24.90;99.90
53880;DHT22;39791;53.184;5.486;2023-06-14T13:13:23;24.80;99.90
53880;DHT22;39791;53.184;5.486;2023-06-14T13:15:50;24.90;99.90
53880;DHT22;39791;53.184;5.486;2023-06-14T13:18:16;25.00;99.90
53880;DHT22;39791;53.184;5.486;2023-06-14T13:20:42;25.10;99.90
53880;DHT22;39791;53.184;5.486;2023-06-14T13:23:08;25.10;99.90
53880;DHT22;39791;53.184;5.486;2023-06-14T13:25:35;25.00;99.90
53880;DHT22;39791;53.184;5.486;2023-06-14T13:28:02;24.90;99.90
53880;DHT22;39791;53.184;5.486;2023-06-14T13:30:27;24.80;99.90
53880;DHT22;39791;53.184;5.486;2023-06-14T13:32:53;24.50;99.90
53880;DHT22;39791;53.184;5.486;2023-06-14T13:35:19;24.40;99.90
53880;DHT22;39791;53.184;5.486;2023-06-14T13:37:45;24.30;99.90
53880;DHT22;39791;53.184;5.486;2023-06-14T13:40:11;24.40;99.90
53880;DHT22;39791;53.184;5.486;2023-06-14T13:42:37;24.40;99.90
53880;DHT22;39791;53.184;5.486;2023-06-14T13:45:04;24.40;99.90
53880;DHT22;39791;53.184;5.486;2023-06-14T13:47:31;24.40;99.90
53880;DHT22;39791;53.184;5.486;2023-06-14T13:49:57;24.40;99.90
53880;DHT22;39791;53.184;5.486;2023-06-14T13:52:23;24.40;99.90
53880;DHT22;39791;53.184;5.486;2023-06-14T13:54:49;24.30;99.90
53880;DHT22;39791;53.184;5.486;2023-06-14T13:57:15;24.20;99.90
53880;DHT22;39791;53.184;5.486;2023-06-14T13:59:41;24.20;99.90
53880;DHT22;39791;53.184;5.486;2023-06-14T14:02:08;24.20;99.90
53880;DHT22;39791;53.184;5.486;2023-06-14T14:04:34;24.30;99.90
53880;DHT22;39791;53.184;5.486;2023-06-14T14:07:03;24.70;99.90
53880;DHT22;39791;53.184;5.486;2023-06-14T14:09:29;24.20;99.90
53880;DHT22;39791;53.184;5.486;2023-06-14T14:11:56;24.20;99.90
53880;DHT22;39791;53.184;5.486;2023-06-14T14:14:21;24.10;99.90
53880;DHT22;39791;53.184;5.486;2023-06-14T14:16:49;24.10;99.90
53880;DHT22;39791;53.184;5.486;2023-06-14T14:19:17;24.10;99.90
53880;DHT22;39791;53.184;5.486;2023-06-14T14:21:44;24.10;99.90
53880;DHT22;39791;53.184;5.486;2023-06-14T14:24:10;24.10;99.90
53880;DHT22;39791;53.184;5.486;2023-06-14T14:26:35;24.20;99.90
53880;DHT22;39791;53.184;5.486;2023-06-14T14:29:01;24.00;99.90
53880;DHT22;39791;53.184;5.486;2023-06-14T14:31:28;24.00;99.90
53880;DHT22;39791;53.184;5.486;2023-06-14T14:33:53;24.00;99.90
53880;DHT22;39791;53.184;5.486;2023-06-14T14:36:19;23.90;99.90
53880;DHT22;39791;53.184;5.486;2023-06-14T14:38:45;23.80;99.90
53880;DHT22;39791;53.184;5.486;2023-06-14T14:41:12;23.80;99.90
53880;DHT22;39791;53.184;5.486;2023-06-14T14:43:38;23.70;99.90
53880;DHT22;39791;53.184;5.486;2023-06-14T14:46:03;23.60;99.90
53880;DHT22;39791;53.184;5.486;2023-06-14T14:48:29;23.70;99.90
53880;DHT22;39791;53.184;5.486;2023-06-14T14:50:55;23.80;99.90
53880;DHT22;39791;53.184;5.486;2023-06-14T14:53:20;23.80;99.90
53880;DHT22;39791;53.184;5.486;2023-06-14T14:55:46;23.90;99.90
53880;DHT22;39791;53.184;5.486;2023-06-14T14:58:12;23.80;99.90
53880;DHT22;39791;53.184;5.486;2023-06-14T15:00:38;23.80;99.90
53880;DHT22;39791;53.184;5.486;2023-06-14T15:03:04;23.70;99.90
53880;DHT22;39791;53.184;5.486;2023-06-14T15:05:29;23.70;99.90
53880;DHT22;39791;53.184;5.486;2023-06-14T15:07:55;23.60;99.90
53880;DHT22;39791;53.184;5.486;2023-06-14T15:10:21;23.60;99.90
53880;DHT22;39791;53.184;5.486;2023-06-14T15:12:46;23.60;99.90
53880;DHT22;39791;53.184;5.486;2023-06-14T15:15:12;23.50;99.90
53880;DHT22;39791;53.184;5.486;2023-06-14T15:17:37;23.50;99.90
53880;DHT22;39791;53.184;5.486;2023-06-14T15:20:03;23.50;99.90
53880;DHT22;39791;53.184;5.486;2023-06-14T15:22:31;23.50;99.90
53880;DHT22;39791;53.184;5.486;2023-06-14T15:24:56;23.50;99.90
53880;DHT22;39791;53.184;5.486;2023-06-14T15:27:22;23.50;99.90
53880;DHT22;39791;53.184;5.486;2023-06-14T15:29:48;23.50;99.90
53880;DHT22;39791;53.184;5.486;2023-06-14T15:32:13;23.50;99.90
53880;DHT22;39791;53.184;5.486;2023-06-14T15:34:39;23.40;99.90
53880;DHT22;39791;53.184;5.486;2023-06-14T15:37:06;23.30;99.90
53880;DHT22;39791;53.184;5.486;2023-06-14T15:39:32;23.40;99.90
53880;DHT22;39791;53.184;5.486;2023-06-14T15:41:58;23.30;99.90
53880;DHT22;39791;53.184;5.486;2023-06-14T15:44:24;23.30;99.90
53880;DHT22;39791;53.184;5.486;2023-06-14T15:46:49;23.20;99.90
53880;DHT22;39791;53.184;5.486;2023-06-14T15:49:15;23.10;99.90